createdAt,value
2017-03-23T17:09:04.763Z,61.38
2017-03-23T17:10:18.629Z,61.57
2017-03-23T17:11:32.056Z,61.95
2017-03-23T17:12:45.805Z,61.72
2017-03-23T17:14:01.011Z,62.59
2017-03-23T17:15:14.751Z,62.4
2017-03-23T17:16:28.683Z,62.4
2017-03-23T17:17:42.110Z,62.78
2017-03-23T17:18:56.068Z,63.07
2017-03-23T17:20:09.650Z,62.87
2017-03-23T17:21:23.663Z,63.45
2017-03-23T17:22:37.825Z,63.07
2017-03-23T17:23:52.058Z,63.45
2017-03-23T17:25:05.787Z,63.16
2017-03-23T17:26:19.590Z,63.35
2017-03-23T17:27:33.179Z,64.02
2017-03-23T17:28:47.379Z,64.22
2017-03-23T17:30:01.235Z,64.09
2017-03-23T17:31:15.028Z,64.18
2017-03-23T17:32:28.770Z,64.4
2017-03-23T17:33:42.267Z,64.94
2017-03-23T17:34:55.761Z,64.56
2017-03-23T17:36:48.976Z,64.75
2017-03-23T17:38:02.414Z,64.75
2017-03-23T17:39:16.107Z,65.04
2017-03-23T17:40:29.656Z,65.14
2017-03-23T17:41:43.120Z,65.14
2017-03-23T17:42:57.031Z,65.61
2017-03-23T17:44:12.912Z,65.33
2017-03-23T17:45:27.878Z,65.33
2017-03-23T17:46:41.223Z,65.8
2017-03-23T17:47:55.014Z,65.23
2017-03-23T17:49:08.584Z,65.61
2017-03-23T17:50:22.809Z,65.61
2017-03-23T17:51:36.997Z,65.61
2017-03-23T17:52:51.261Z,65.61
2017-03-23T17:54:04.750Z,66.09
2017-03-23T17:55:18.309Z,65.71
2017-03-23T17:56:32.319Z,66.09
2017-03-23T17:58:01.337Z,66.56
2017-03-23T17:59:14.854Z,66.56
2017-03-23T18:00:29.367Z,66.56
2017-03-23T18:01:43.102Z,66.85
2017-03-23T18:02:57.125Z,66.95
2017-03-23T18:04:10.903Z,66.95
2017-03-23T18:05:24.867Z,66.66
2017-03-23T18:06:39.079Z,66.85
2017-03-23T18:07:53.218Z,67.33
2017-03-23T18:09:07.428Z,67.14
2017-03-23T18:10:21.038Z,66.85
2017-03-23T18:11:35.648Z,67.49
2017-03-23T18:12:50.408Z,67.3
2017-03-23T18:14:03.847Z,67.3
2017-03-23T18:15:17.884Z,67.11
2017-03-23T18:16:31.785Z,67.87
2017-03-23T18:17:45.692Z,67.49
2017-03-23T18:18:59.075Z,67.58
2017-03-23T18:20:12.682Z,67.77
2017-03-23T18:21:26.082Z,67.49
2017-03-23T18:22:39.828Z,67.4
2017-03-23T18:23:53.690Z,67.3
2017-03-23T18:25:07.549Z,67.77
2017-03-23T18:26:20.919Z,67.68
2017-03-23T18:27:34.605Z,67.87
2017-03-23T18:28:48.121Z,67.87
2017-03-23T18:30:02.467Z,67.87
2017-03-23T18:31:16.027Z,67.87
2017-03-23T18:32:29.694Z,68.16
2017-03-23T18:33:43.171Z,68.06
2017-03-23T18:34:56.967Z,68.06
2017-03-23T18:36:10.685Z,68.16
2017-03-23T18:37:24.605Z,68.26
2017-03-23T18:38:38.328Z,68.16
2017-03-23T18:39:52.270Z,68.26
2017-03-23T18:41:06.792Z,68.63
2017-03-23T18:42:22.745Z,68.63
2017-03-23T18:43:37.027Z,68.35
2017-03-23T18:44:50.747Z,68.35
2017-03-23T18:46:04.668Z,68.35
2017-03-23T18:47:18.232Z,68.44
2017-03-23T18:48:32.081Z,68.44
2017-03-23T18:49:45.592Z,68.44
2017-03-23T18:50:59.148Z,68.63
2017-03-23T18:52:12.750Z,68.54
2017-03-23T18:53:26.333Z,68.73
2017-03-23T18:54:40.479Z,68.63
2017-03-23T18:55:54.391Z,68.35
2017-03-23T18:57:08.177Z,68.44
2017-03-23T18:58:21.635Z,68.7
2017-03-23T18:59:35.176Z,69.27
2017-03-23T19:00:51.478Z,68.7
2017-03-23T19:02:05.255Z,69.08
2017-03-23T19:03:18.708Z,69.27
2017-03-23T19:05:04.960Z,69.08
2017-03-23T19:06:18.655Z,68.98
2017-03-23T19:07:32.077Z,68.88
2017-03-23T19:08:46.035Z,69.37
2017-03-23T19:09:59.812Z,69.46
2017-03-23T19:11:13.740Z,69.93
2017-03-23T19:12:27.561Z,69.84
2017-03-23T19:13:41.361Z,69.56
2017-03-23T19:14:54.777Z,69.56
2017-03-23T19:16:08.926Z,69.84
2017-03-23T19:17:22.429Z,69.93
2017-03-23T19:18:36.293Z,70.42
2017-03-23T19:19:49.879Z,70.22
2017-03-23T19:21:03.444Z,70.32
2017-03-23T19:22:16.860Z,70.7
2017-03-23T19:23:31.084Z,70.51
2017-03-23T19:24:44.791Z,70.61
2017-03-23T19:25:58.687Z,70.61
2017-03-23T19:27:12.430Z,70.51
2017-03-23T19:28:26.496Z,71.27
2017-03-23T19:29:40.709Z,71.08
2017-03-23T19:30:55.718Z,70.79
2017-03-23T19:32:09.093Z,70.79
2017-03-23T19:33:22.697Z,70.7
2017-03-23T19:34:36.402Z,71.46
2017-03-23T19:35:50.085Z,71.08
2017-03-23T19:37:03.829Z,70.98
2017-03-23T19:38:17.503Z,71.91
2017-03-23T19:39:31.571Z,71.27
2017-03-23T19:40:45.759Z,71.94
2017-03-23T19:41:59.153Z,71.52
2017-03-23T19:43:13.918Z,71.52
2017-03-23T19:44:27.327Z,71.81
2017-03-23T19:45:41.274Z,71.91
2017-03-23T19:46:55.320Z,71.91
2017-03-23T19:48:09.199Z,72.09
2017-03-23T19:49:24.425Z,72.09
2017-03-23T19:50:38.044Z,72
2017-03-23T19:51:52.062Z,72.09
2017-03-23T19:53:05.664Z,72
2017-03-23T19:54:19.378Z,71.91
2017-03-23T19:55:33.487Z,72.28
2017-03-23T19:56:47.016Z,72.28
2017-03-23T19:58:00.820Z,72.38
2017-03-23T19:59:15.185Z,72.38
2017-03-23T20:00:29.872Z,72.48
2017-03-23T20:01:43.585Z,72.28
2017-03-23T20:02:57.254Z,72.48
2017-03-23T20:04:10.678Z,72.38
2017-03-23T20:05:25.708Z,72.38
2017-03-23T20:06:39.408Z,72.28
2017-03-23T20:07:54.128Z,72.28
2017-03-23T20:09:07.862Z,72.19
2017-03-23T20:10:21.453Z,72.57
2017-03-23T20:11:35.310Z,73.05
2017-03-23T20:12:48.869Z,72.96
2017-03-23T20:14:03.553Z,72.96
2017-03-23T20:15:17.527Z,72.86
2017-03-23T20:16:30.944Z,72.96
2017-03-23T20:17:47.027Z,73.05
2017-03-23T20:19:01.130Z,72.76
2017-03-23T20:20:15.130Z,72.96
2017-03-23T20:21:28.645Z,72.86
2017-03-23T20:22:43.674Z,73.14
2017-03-23T20:23:57.485Z,73.05
2017-03-23T20:25:11.563Z,73.62
2017-03-23T20:26:25.431Z,73.05
2017-03-23T20:27:39.482Z,73.14
2017-03-23T20:28:53.920Z,73.52
2017-03-23T20:30:07.775Z,73.33
2017-03-23T20:31:21.978Z,73.3
2017-03-23T20:32:36.063Z,73.3
2017-03-23T20:33:49.835Z,73.24
2017-03-23T20:35:03.454Z,72.96
2017-03-23T20:36:17.047Z,73.01
2017-03-23T20:37:30.645Z,73.39
2017-03-23T20:38:45.308Z,73.49
2017-03-23T20:39:59.141Z,73.58
2017-03-23T20:41:12.859Z,73.11
2017-03-23T20:42:27.019Z,73.14
2017-03-23T20:43:41.387Z,73.3
2017-03-23T20:44:55.655Z,73.58
2017-03-23T20:46:09.593Z,73.01
2017-03-23T20:47:23.934Z,73.3
2017-03-23T20:48:37.812Z,72.82
2017-03-23T20:49:51.636Z,73.49
2017-03-23T20:51:05.359Z,73.3
2017-03-23T20:52:19.296Z,73.87
2017-03-23T20:53:33.397Z,73.11
2017-03-23T20:54:47.003Z,73.68
2017-03-23T20:56:00.489Z,74.06
2017-03-23T20:57:14.859Z,73.96
2017-03-23T20:58:29.311Z,74.06
2017-03-23T20:59:42.987Z,74.06
2017-03-23T21:00:56.416Z,74.25
2017-03-23T21:02:09.963Z,74.35
2017-03-23T21:03:24.699Z,73.96
2017-03-23T21:04:39.645Z,74.92
2017-03-23T21:05:53.161Z,74.35
2017-03-23T21:07:07.018Z,74.54
2017-03-23T21:08:20.898Z,74.82
2017-03-23T21:11:48.478Z,75.68
2017-03-23T21:13:01.917Z,75.16
2017-03-23T21:14:15.824Z,75.45
2017-03-23T21:15:30.214Z,75.96
2017-03-23T21:16:44.318Z,76.4
2017-03-23T21:17:58.119Z,76.59
2017-03-23T21:19:12.053Z,77.07
2017-03-23T21:20:25.514Z,76.88
2017-03-23T21:21:39.983Z,76.79
2017-03-23T21:22:53.991Z,77.55
2017-03-23T21:24:07.860Z,77.83
2017-03-23T21:25:21.706Z,77.74
2017-03-23T21:26:36.195Z,77.64
2017-03-23T21:27:49.890Z,77.83
2017-03-23T21:29:03.499Z,77.64
2017-03-23T21:30:17.498Z,77.74
2017-03-23T21:31:31.046Z,78.31
2017-03-23T21:32:44.959Z,78.5
2017-03-23T21:33:58.905Z,78.69
2017-03-23T21:35:14.922Z,79.17
2017-03-23T21:36:29.368Z,79.07
2017-03-23T21:37:42.915Z,78.78
2017-03-23T21:38:56.919Z,79.27
2017-03-23T21:40:10.658Z,79.46
2017-03-23T21:41:24.884Z,79.55
2017-03-23T21:42:39.165Z,79.74
2017-03-23T21:43:54.061Z,79.64
2017-03-23T21:45:09.011Z,79.64
2017-03-23T21:46:24.092Z,79.7
2017-03-23T21:47:37.584Z,80.08
2017-03-23T21:48:51.158Z,80.27
2017-03-23T21:50:04.610Z,80.18
2017-03-23T21:51:18.486Z,79.8
2017-03-23T21:52:32.170Z,79.8
2017-03-23T21:53:46.078Z,80.08
2017-03-23T21:55:00.162Z,79.7
2017-03-23T21:56:13.640Z,80.55
2017-03-23T21:57:27.511Z,80.65
2017-03-23T21:58:41.884Z,80.75
2017-03-23T21:59:55.458Z,80.27
2017-03-23T22:01:11.149Z,80.75
2017-03-23T22:02:25.008Z,81.23
2017-03-23T22:03:38.756Z,81.03
2017-03-23T22:04:52.793Z,81.51
2017-03-23T22:06:07.193Z,81.7
2017-03-23T22:07:20.871Z,81.79
2017-03-23T22:08:34.912Z,81.7
2017-03-23T22:09:48.677Z,81.7
2017-03-23T22:11:02.483Z,81.98
2017-03-23T22:12:15.937Z,81.89
2017-03-23T22:13:29.608Z,81.89
2017-03-23T22:14:43.915Z,81.89
2017-03-23T22:15:57.863Z,82.08
2017-03-23T22:17:11.576Z,82.08
2017-03-23T22:18:25.291Z,82.56
2017-03-23T22:19:39.052Z,82.65
2017-03-23T22:20:52.572Z,82.65
2017-03-23T22:22:44.928Z,83.22
2017-03-23T22:23:59.164Z,82.75
2017-03-23T22:25:12.699Z,83.13
2017-03-23T22:26:26.506Z,83.32
2017-03-23T22:27:40.352Z,83.22
2017-03-23T22:28:54.586Z,83.13
2017-03-23T22:30:08.683Z,83.28
2017-03-23T22:31:22.355Z,83.7
2017-03-23T22:32:35.761Z,83.56
2017-03-23T22:33:49.312Z,83.75
2017-03-23T22:35:03.668Z,83.47
2017-03-23T22:36:17.519Z,84.13
2017-03-23T22:37:30.985Z,83.65
2017-03-23T22:38:44.897Z,84.04
2017-03-23T22:39:58.817Z,83.75
2017-03-23T22:41:13.091Z,84.13
2017-03-23T22:42:27.095Z,84.23
2017-03-23T22:43:40.673Z,84.04
2017-03-23T22:44:54.120Z,84.33
2017-03-23T22:46:07.869Z,84.04
2017-03-23T22:47:21.313Z,83.85
2017-03-23T22:48:36.029Z,83.85
2017-03-23T22:49:49.414Z,83.94
2017-03-23T22:51:03.028Z,83.94
2017-03-23T22:52:18.851Z,84.04
2017-03-23T22:53:33.070Z,84.33
2017-03-23T22:54:47.028Z,84.61
2017-03-23T22:56:00.753Z,84.42
2017-03-23T22:57:14.241Z,84.61
2017-03-23T22:58:28.172Z,84.42
2017-03-23T22:59:41.589Z,84.13
2017-03-23T23:00:55.386Z,84.42
2017-03-23T23:02:08.929Z,84.61
2017-03-23T23:03:22.556Z,84.61
2017-03-23T23:04:35.956Z,84.42
2017-03-23T23:05:49.876Z,84.99
2017-03-23T23:07:04.431Z,84.99
2017-03-23T23:08:18.095Z,85.08
2017-03-23T23:09:31.444Z,84.85
2017-03-23T23:10:45.583Z,85.42
2017-03-23T23:11:59.020Z,85.33
2017-03-23T23:13:13.169Z,85.52
2017-03-23T23:14:27.552Z,85.71
2017-03-23T23:15:42.706Z,85.24
2017-03-23T23:16:56.842Z,85.9
2017-03-23T23:18:12.343Z,85.61
2017-03-23T23:19:26.619Z,85.24
2017-03-23T23:20:40.331Z,85.33
2017-03-23T23:21:54.657Z,85.24
2017-03-23T23:23:08.206Z,85.52
2017-03-23T23:24:21.794Z,85.99
2017-03-23T23:25:35.748Z,85.71
2017-03-23T23:26:49.455Z,85.71
2017-03-23T23:28:04.729Z,85.61
2017-03-23T23:29:19.298Z,86.18
2017-03-23T23:30:33.507Z,85.8
2017-03-23T23:31:47.733Z,85.52
2017-03-23T23:33:01.461Z,85.8
2017-03-23T23:34:15.757Z,85.61
2017-03-23T23:35:30.429Z,85.61
2017-03-23T23:36:44.363Z,85.8
2017-03-23T23:37:58.755Z,85.14
2017-03-23T23:39:12.206Z,85.61
2017-03-23T23:40:46.386Z,85.61
2017-03-23T23:41:59.915Z,85.52
2017-03-23T23:43:13.689Z,85.8
2017-03-23T23:44:27.237Z,85.61
2017-03-23T23:45:40.625Z,85.8
2017-03-23T23:46:54.141Z,85.04
2017-03-23T23:48:07.785Z,85.99
2017-03-23T23:49:54.479Z,85.42
2017-03-23T23:51:08.323Z,85.61
2017-03-23T23:52:22.693Z,85.99
2017-03-23T23:53:36.713Z,85.52
2017-03-23T23:54:50.175Z,85.61
2017-03-23T23:56:03.641Z,85.9
2017-03-23T23:57:18.051Z,85.99
2017-03-23T23:58:40.786Z,85.9
2017-03-23T23:59:54.450Z,85.71
